Time;durP1;ratioP1;P1;durP2;ratioP2;P2;SDS_P1;SDS_P2;PMS_P1;PMS_P2;Temp;Humidity;BMP_temperature;BMP_pressure;BME280_temperature;BME280_humidity;BME280_pressure;Samples;Min_cycle;Max_cycle;Signal;HPM_P1;HPM_P2
2022/12/24 00:01:35;;;;;;;15.02;9.98;;;;;;;14.70;59.54;99584.19;5091940;28;20043;-71
2022/12/24 00:04:03;;;;;;;15.13;10.35;;;;;;;14.67;59.64;99584.41;5091929;28;20051;-71
2022/12/24 00:06:31;;;;;;;14.63;9.95;;;;;;;14.64;59.72;99588.22;5091925;28;20431;-71
2022/12/24 00:09:00;;;;;;;14.85;10.02;;;;;;;14.59;59.79;99588.66;5091689;28;20056;-71
2022/12/24 00:11:28;;;;;;;14.15;9.55;;;;;;;14.59;59.57;99587.81;5091966;28;20039;-71
2022/12/24 00:13:58;;;;;;;13.15;9.15;;;;;;;14.55;59.68;99586.34;5091878;28;20472;-71
2022/12/24 00:16:26;;;;;;;14.98;9.82;;;;;;;14.53;59.70;99591.00;5091839;28;20048;-70
2022/12/24 00:18:54;;;;;;;16.35;9.90;;;;;;;14.50;59.80;99593.97;5091648;28;20362;-70
2022/12/24 00:21:23;;;;;;;16.00;10.77;;;;;;;14.48;59.75;99596.78;5091734;28;20047;-71
2022/12/24 00:23:51;;;;;;;14.52;9.55;;;;;;;14.44;59.88;99589.09;5091812;28;20440;-71
2022/12/24 00:26:19;;;;;;;14.68;9.77;;;;;;;14.44;59.79;99606.03;5091986;28;20056;-70
2022/12/24 00:28:47;;;;;;;15.57;10.18;;;;;;;14.42;59.70;99591.91;5091653;28;20086;-72
2022/12/24 00:31:18;;;;;;;15.93;10.27;;;;;;;14.40;59.75;99590.34;5091672;28;20056;-72
2022/12/24 00:33:47;;;;;;;13.90;9.75;;;;;;;14.38;59.80;99582.44;5091572;28;20055;-72
2022/12/24 00:36:16;;;;;;;15.77;10.55;;;;;;;14.33;59.71;99593.56;5091595;28;20043;-72
2022/12/24 00:38:44;;;;;;;14.10;9.63;;;;;;;14.33;59.77;99598.06;5091570;28;20378;-72
2022/12/24 00:41:24;;;;;;;15.80;10.27;;;;;;;14.30;59.77;99609.91;5091729;28;20127;-73
2022/12/24 00:43:54;;;;;;;15.07;10.18;;;;;;;14.28;59.83;99611.88;5091589;28;20113;-71
2022/12/24 00:46:24;;;;;;;14.80;9.52;;;;;;;14.26;59.69;99611.16;5091701;28;20054;-72
2022/12/24 00:48:53;;;;;;;14.73;9.35;;;;;;;14.24;59.80;99629.22;5091595;28;20098;-73
2022/12/24 00:51:22;;;;;;;12.90;9.38;;;;;;;14.23;59.86;99651.66;5091424;28;20056;-72
2022/12/24 00:53:51;;;;;;;14.00;9.10;;;;;;;14.20;59.86;99641.19;5091637;28;20497;-72
2022/12/24 00:56:20;;;;;;;15.30;10.55;;;;;;;14.19;59.80;99634.13;5094311;28;20071;-71
2022/12/24 00:58:48;;;;;;;14.90;10.02;;;;;;;14.16;59.89;99639.72;5095155;28;20040;-71
2022/12/24 01:01:17;;;;;;;13.48;9.32;;;;;;;14.14;59.90;99620.25;5095237;28;20040;-72
2022/12/24 01:03:48;;;;;;;14.35;9.35;;;;;;;14.12;59.90;99627.56;5095330;28;20463;-71
2022/12/24 01:06:17;;;;;;;15.50;9.88;;;;;;;14.10;59.96;99616.13;5095276;28;20089;-71
2022/12/24 01:08:45;;;;;;;15.32;10.52;;;;;;;14.09;59.77;99606.41;5094941;28;20051;-71
2022/12/24 01:11:14;;;;;;;14.25;9.93;;;;;;;14.06;59.91;99592.38;5095065;28;20123;-71
2022/12/24 01:13:42;;;;;;;14.73;9.50;;;;;;;14.04;59.74;99582.63;5095041;28;20055;-72
2022/12/24 01:16:15;;;;;;;14.20;9.60;;;;;;;14.01;59.87;99572.19;5095034;28;20389;-72
2022/12/24 01:18:44;;;;;;;15.82;10.30;;;;;;;14.01;60.03;99565.97;5094806;28;20048;-72
2022/12/24 01:21:14;;;;;;;13.80;9.77;;;;;;;13.98;59.93;99560.84;5094807;28;20063;-72
2022/12/24 01:23:43;;;;;;;15.32;10.55;;;;;;;13.95;59.94;99550.38;5094786;28;20044;-72
2022/12/24 01:26:12;;;;;;;15.00;9.90;;;;;;;13.95;60.03;99553.06;5094728;28;20561;-72
2022/12/24 01:28:40;;;;;;;14.88;9.77;;;;;;;13.92;60.04;99546.16;5094658;28;20126;-72
2022/12/24 01:31:13;;;;;;;15.70;10.30;;;;;;;13.89;60.01;99534.81;5094606;28;20127;-71
2022/12/24 01:33:42;;;;;;;14.63;9.93;;;;;;;13.89;59.98;99545.53;5094617;28;20427;-72
2022/12/24 01:36:11;;;;;;;15.80;10.48;;;;;;;13.87;59.99;99552.88;5094483;28;20158;-72
2022/12/24 01:38:41;;;;;;;16.08;10.45;;;;;;;13.86;59.82;99524.38;5094399;28;20074;-71
2022/12/24 01:44:25;;;;;;;15.02;9.43;;;;;;;13.81;59.99;99542.69;5094437;28;20052;-71
2022/12/24 01:47:06;;;;;;;16.75;10.63;;;;;;;13.80;59.97;99538.28;5094669;28;20401;-71
2022/12/24 01:49:36;;;;;;;16.58;10.95;;;;;;;13.79;60.00;99541.94;5094015;28;20037;-71
2022/12/24 01:52:09;;;;;;;15.93;10.25;;;;;;;13.77;60.10;99549.25;5094207;28;20443;-71
2022/12/24 01:54:43;;;;;;;15.73;10.70;;;;;;;13.75;60.12;99519.91;5094042;28;20463;-71
2022/12/24 01:57:17;;;;;;;16.65;11.02;;;;;;;13.74;60.21;99545.03;5094074;28;20051;-71
2022/12/24 01:59:53;;;;;;;15.60;10.65;;;;;;;13.72;59.91;99550.53;5093966;28;20680;-71
2022/12/24 02:02:22;;;;;;;16.15;10.98;;;;;;;13.69;60.02;99545.41;5094043;28;20048;-71
2022/12/24 02:04:55;;;;;;;16.95;11.45;;;;;;;13.66;60.17;99542.97;5094008;28;20056;-71
2022/12/24 02:07:24;;;;;;;16.38;11.30;;;;;;;13.66;60.12;99545.66;5093727;28;20488;-71
2022/12/24 02:09:58;;;;;;;15.05;10.05;;;;;;;13.65;60.14;99533.25;5093827;28;20046;-72
2022/12/24 02:12:27;;;;;;;;;;;;;;;13.63;59.92;99540.56;5094252;28;20048;-72
2022/12/24 02:14:55;;;;;;;16.48;10.75;;;;;;;13.62;60.16;99541.56;5093720;28;19920;-72
2022/12/24 02:17:31;;;;;;;17.17;11.10;;;;;;;13.59;60.09;99552.50;5093759;28;20138;-71
2022/12/24 02:20:30;;;;;;;16.08;11.23;;;;;;;13.58;59.97;99558.00;5093831;28;20064;-72
2022/12/24 02:23:25;;;;;;;17.23;11.05;;;;;;;13.57;60.14;99549.13;5093584;28;20055;-72
2022/12/24 02:26:13;;;;;;;17.73;11.27;;;;;;;13.53;60.23;99561.06;5092264;28;20076;-72
2022/12/24 02:28:59;;;;;;;17.83;11.35;;;;;;;13.52;60.27;99570.09;5093630;28;20054;-72
2022/12/24 02:31:36;;;;;;;18.20;11.98;;;;;;;13.50;60.03;99593.47;5093467;28;20139;-72
2022/12/24 02:34:10;;;;;;;17.30;11.10;;;;;;;13.50;60.01;99600.66;5093209;28;20485;-72
2022/12/24 02:36:43;;;;;;;17.35;11.65;;;;;;;13.47;60.19;99583.00;5093347;28;20123;-71
2022/12/24 02:39:15;;;;;;;17.17;11.40;;;;;;;13.43;60.07;99571.72;5093259;28;20048;-71
2022/12/24 02:42:07;;;;;;;17.08;11.23;;;;;;;13.44;60.21;99572.56;5091788;28;20048;-73
2022/12/24 02:44:40;;;;;;;16.65;11.43;;;;;;;13.42;60.25;99569.16;5093169;28;20046;-73
2022/12/24 02:47:11;;;;;;;16.83;11.07;;;;;;;13.40;60.19;99565.72;5093155;28;20052;-73
2022/12/24 02:49:45;;;;;;;17.60;11.35;;;;;;;13.39;60.14;99553.31;5093003;28;20055;-72
2022/12/24 02:52:28;;;;;;;16.77;11.27;;;;;;;13.38;60.23;99554.31;5093293;28;20043;-73
2022/12/24 02:54:57;;;;;;;;;;;;;;;13.36;60.24;99564.28;5093609;28;20086;-73
2022/12/24 02:57:33;;;;;;;15.57;10.43;;;;;;;13.34;60.42;99564.44;5092950;28;19926;-72
2022/12/24 03:00:07;;;;;;;18.38;11.52;;;;;;;13.34;60.33;99568.94;5092872;28;20036;-71
2022/12/24 03:02:47;;;;;;;15.77;10.90;;;;;;;13.31;60.37;99569.16;5092809;28;20064;-72
2022/12/24 03:05:26;;;;;;;15.93;10.93;;;;;;;13.31;60.42;99574.53;5092823;28;20059;-72
2022/12/24 03:08:01;;;;;;;16.27;11.20;;;;;;;13.30;60.42;99578.19;5092929;28;20064;-72
2022/12/24 03:10:37;;;;;;;16.70;11.05;;;;;;;13.25;60.29;99570.53;5092704;28;20123;-72
2022/12/24 03:13:10;;;;;;;14.93;11.15;;;;;;;13.28;60.40;99583.66;5092733;28;20099;-72
2022/12/24 03:15:39;;;;;;;15.38;11.40;;;;;;;13.27;60.51;99597.19;5092688;28;20048;-71
2022/12/24 03:18:11;;;;;;;16.65;11.35;;;;;;;13.25;60.53;99583.09;5092106;28;20119;-72
2022/12/24 03:20:45;;;;;;;15.60;10.48;;;;;;;13.23;60.33;99566.28;5092293;28;20074;-71
2022/12/24 03:23:14;;;;;;;15.57;10.85;;;;;;;13.22;60.66;99559.22;5092595;28;20047;-71
2022/12/24 03:25:44;;;;;;;16.92;12.00;;;;;;;13.22;60.39;99545.81;5092457;28;20043;-71
2022/12/24 03:28:14;;;;;;;16.23;10.63;;;;;;;13.20;60.39;99545.94;5092517;28;20052;-72
2022/12/24 03:30:45;;;;;;;15.40;11.02;;;;;;;13.20;60.43;99547.78;5092366;28;20097;-71
2022/12/24 03:33:16;;;;;;;17.40;10.75;;;;;;;13.19;60.50;99541.56;5092299;28;20089;-71
2022/12/24 03:35:45;;;;;;;15.50;10.75;;;;;;;13.17;60.48;99543.50;5092299;28;20067;-71
2022/12/24 03:38:13;;;;;;;15.30;11.07;;;;;;;13.17;60.53;99547.03;5092098;28;20048;-70
2022/12/24 03:40:44;;;;;;;14.98;10.38;;;;;;;13.15;60.49;99553.50;5092232;28;20055;-72
2022/12/24 03:43:13;;;;;;;16.02;11.40;;;;;;;13.14;60.51;99563.34;5092253;28;20048;-71
2022/12/24 03:45:42;;;;;;;16.70;11.15;;;;;;;13.12;60.52;99557.28;5092349;28;20072;-72
2022/12/24 03:48:10;;;;;;;14.55;10.20;;;;;;;13.12;60.47;99567.09;5092182;28;20040;-70
2022/12/24 03:50:41;;;;;;;15.65;10.45;;;;;;;13.11;60.56;99576.97;5092348;28;20060;-70
2022/12/24 03:53:09;;;;;;;15.05;10.43;;;;;;;13.09;60.66;99583.44;5092440;28;20101;-71
2022/12/24 03:55:38;;;;;;;15.18;10.65;;;;;;;13.09;60.66;99583.44;5093029;28;20115;-71
2022/12/24 03:58:06;;;;;;;15.23;10.55;;;;;;;13.08;60.70;99589.78;5099494;28;20123;-71
2022/12/24 04:00:39;;;;;;;14.10;9.82;;;;;;;13.05;60.67;99593.56;5112129;28;20054;-72
2022/12/24 04:03:07;;;;;;;15.27;10.32;;;;;;;13.06;60.56;99595.25;5109577;28;20044;-71
2022/12/24 04:05:36;;;;;;;15.00;10.35;;;;;;;13.04;60.51;99586.50;5108483;28;20048;-70
2022/12/24 04:08:06;;;;;;;14.90;9.77;;;;;;;13.04;60.62;99594.53;5113725;28;20050;-72
2022/12/24 04:10:38;;;;;;;14.65;10.50;;;;;;;13.03;60.68;99589.31;5112023;28;20055;-71
2022/12/24 04:13:06;;;;;;;14.93;10.30;;;;;;;13.01;60.62;99586.72;5113834;28;20047;-71
2022/12/24 04:15:34;;;;;;;14.50;10.73;;;;;;;13.00;60.70;99585.03;5112744;28;20673;-72
2022/12/24 04:18:02;;;;;;;15.00;10.65;;;;;;;13.00;60.79;99590.38;5110265;28;20040;-71
2022/12/24 04:20:31;;;;;;;15.65;10.77;;;;;;;12.98;60.74;99600.38;5111914;28;20040;-72
2022/12/24 04:22:59;;;;;;;13.82;9.93;;;;;;;12.99;60.65;99598.53;5093095;28;20098;-71
2022/12/24 04:25:28;;;;;;;14.38;9.55;;;;;;;12.97;60.86;99598.66;5092051;28;20044;-72
2022/12/24 04:27:56;;;;;;;14.63;11.02;;;;;;;12.96;60.88;99605.00;5092049;28;20127;-73
2022/12/24 04:30:27;;;;;;;15.07;10.20;;;;;;;12.94;60.90;99598.94;5093808;28;20401;-72
2022/12/24 04:32:55;;;;;;;13.82;9.90;;;;;;;12.94;60.90;99611.47;5095823;28;20071;-72
2022/12/24 04:35:23;;;;;;;13.35;9.30;;;;;;;12.94;60.85;99609.63;5095828;28;20040;-73
2022/12/24 04:37:52;;;;;;;13.88;9.90;;;;;;;12.92;60.82;99582.09;5095556;28;20624;-73
2022/12/24 04:40:22;;;;;;;12.88;9.25;;;;;;;12.98;60.58;99580.78;5095392;28;20086;-73
2022/12/24 04:42:54;;;;;;;13.57;9.05;;;;;;;13.03;60.76;99582.13;5095432;28;20075;-73
2022/12/24 04:45:22;;;;;;;13.23;9.75;;;;;;;13.09;60.81;99584.28;5095570;28;20051;-73
2022/12/24 04:47:51;;;;;;;13.65;8.90;;;;;;;13.22;60.92;99586.00;5095451;28;20044;-73
2022/12/24 04:50:19;;;;;;;14.23;9.90;;;;;;;13.32;60.75;99586.97;5095274;28;20090;-73
2022/12/24 04:52:47;;;;;;;12.88;9.20;;;;;;;13.44;60.66;99585.94;5095373;28;20459;-73
2022/12/24 04:55:15;;;;;;;12.55;9.13;;;;;;;13.56;60.69;99587.59;5095176;28;20043;-73
2022/12/24 04:57:43;;;;;;;12.68;8.88;;;;;;;13.66;60.44;99587.69;5095249;28;20048;-73
2022/12/24 05:00:23;;;;;;;12.48;8.95;;;;;;;13.79;60.39;99598.22;5095443;28;20063;-73
2022/12/24 05:02:52;;;;;;;12.48;8.75;;;;;;;13.88;60.25;99602.81;5095041;28;20089;-73
2022/12/24 05:05:20;;;;;;;12.30;8.57;;;;;;;14.00;60.16;99612.53;5095012;28;20122;-73
2022/12/24 05:07:48;;;;;;;12.52;8.48;;;;;;;14.09;60.03;99606.41;5094853;28;20059;-72
2022/12/24 05:10:19;;;;;;;13.05;8.63;;;;;;;14.18;59.84;99604.72;5095006;28;20056;-73
2022/12/24 05:12:47;;;;;;;11.27;8.40;;;;;;;14.27;60.25;99599.44;5094932;28;20083;-73
2022/12/24 05:15:15;;;;;;;11.77;8.80;;;;;;;14.41;59.72;99603.63;5094987;28;20122;-73
2022/12/24 05:17:45;;;;;;;11.70;8.88;;;;;;;14.48;59.59;99604.00;5093696;28;20688;-72
2022/12/24 05:20:16;;;;;;;12.63;8.75;;;;;;;14.56;59.64;99601.47;5093586;28;20386;-73
2022/12/24 05:28:20;;;;;;;12.10;8.45;;;;;;;14.88;59.26;99618.31;5094628;28;20047;-73
2022/12/24 05:30:48;;;;;;;11.77;8.23;;;;;;;15.00;59.31;99618.22;5094430;28;20420;-73
2022/12/24 05:33:18;;;;;;;12.15;8.05;;;;;;;15.09;59.09;99622.75;5094469;28;20044;-74
2022/12/24 05:35:46;;;;;;;10.57;8.05;;;;;;;15.19;58.92;99629.03;5094394;28;20044;-72
2022/12/24 05:38:14;;;;;;;12.30;8.60;;;;;;;15.27;58.92;99623.81;5094377;28;20474;-71
2022/12/24 05:40:42;;;;;;;11.32;8.38;;;;;;;15.32;58.86;99624.25;5093203;28;20070;-72
2022/12/24 05:43:10;;;;;;;12.32;8.68;;;;;;;15.36;58.67;99624.84;5093503;28;20068;-72
2022/12/24 05:45:39;;;;;;;11.27;7.60;;;;;;;15.38;58.73;99623.69;5094323;28;20052;-72
2022/12/24 05:48:07;;;;;;;11.38;8.60;;;;;;;15.38;58.67;99631.75;5094174;28;20075;-71
2022/12/24 05:50:39;;;;;;;11.05;8.00;;;;;;;15.37;58.63;99627.38;5094129;28;20063;-72
2022/12/24 05:53:07;;;;;;;11.05;8.05;;;;;;;15.35;58.82;99621.28;5094226;28;20460;-72
2022/12/24 05:55:35;;;;;;;10.57;8.10;;;;;;;15.32;58.83;99613.50;5094052;28;20044;-72
2022/12/24 05:58:03;;;;;;;11.32;8.27;;;;;;;15.29;58.86;99618.31;5093889;28;20048;-73
2022/12/24 06:00:32;;;;;;;10.90;7.50;;;;;;;15.28;58.84;99621.97;5092669;28;20513;-72
2022/12/24 06:03:00;;;;;;;11.55;8.00;;;;;;;15.24;58.96;99623.22;5094003;28;20071;-72
2022/12/24 06:05:28;;;;;;;11.23;8.00;;;;;;;15.19;59.06;99618.28;5093921;28;20093;-71
2022/12/24 06:07:58;;;;;;;11.77;8.13;;;;;;;15.15;59.06;99620.41;5093893;28;20044;-72
2022/12/24 06:10:26;;;;;;;10.13;7.82;;;;;;;15.13;59.11;99624.19;5093908;28;20089;-73
2022/12/24 06:12:55;;;;;;;10.18;7.63;;;;;;;15.10;59.14;99625.31;5093615;28;20105;-73
2022/12/24 06:15:23;;;;;;;10.13;7.70;;;;;;;15.06;59.21;99613.16;5093825;28;20040;-73
2022/12/24 06:17:51;;;;;;;10.60;7.95;;;;;;;15.02;59.03;99617.06;5093620;28;20462;-73
2022/12/24 06:20:20;;;;;;;10.65;7.90;;;;;;;14.99;59.13;99625.41;5093736;28;20075;-72
2022/12/24 06:22:49;;;;;;;11.77;8.10;;;;;;;14.96;59.12;99627.50;5093610;28;20040;-73
2022/12/24 06:25:18;;;;;;;10.75;8.18;;;;;;;14.92;59.25;99635.00;5093498;28;20039;-73
2022/12/24 06:27:46;;;;;;;11.68;8.45;;;;;;;14.87;59.20;99635.41;5093520;28;20106;-73
2022/12/24 06:30:15;;;;;;;10.57;7.68;;;;;;;14.84;59.17;99634.81;5093349;28;20437;-73
2022/12/24 06:32:45;;;;;;;10.60;8.07;;;;;;;14.80;59.23;99639.59;5093314;28;20112;-73
2022/12/24 06:35:13;;;;;;;10.70;8.02;;;;;;;14.77;59.32;99633.66;5093259;28;20051;-73
2022/12/24 06:37:41;;;;;;;10.85;8.10;;;;;;;14.73;59.26;99633.06;5091857;28;20067;-71
2022/12/24 06:40:11;;;;;;;9.85;7.88;;;;;;;14.70;59.34;99654.81;5092145;28;20127;-73
2022/12/24 06:42:41;;;;;;;10.48;7.47;;;;;;;14.67;59.33;99654.22;5093085;28;20051;-73
2022/12/24 06:45:10;;;;;;;11.45;8.02;;;;;;;14.63;59.32;99661.69;5093168;28;20051;-72
2022/12/24 06:47:38;;;;;;;10.00;7.30;;;;;;;14.59;59.37;99673.69;5093084;28;20093;-73
2022/12/24 06:50:08;;;;;;;9.55;7.60;;;;;;;14.56;59.42;99668.56;5092856;28;20052;-73
2022/12/24 06:52:40;;;;;;;11.27;7.10;;;;;;;14.53;59.43;99667.00;5092648;28;20058;-73
2022/12/24 06:55:09;;;;;;;11.77;7.80;;;;;;;14.50;59.58;99688.75;5091667;28;20292;-73
2022/12/24 06:57:37;;;;;;;11.20;7.90;;;;;;;14.47;59.56;99685.44;5092903;28;20048;-74
2022/12/24 07:00:10;;;;;;;9.82;7.88;;;;;;;14.43;59.53;99695.56;5092876;28;20040;-70
2022/12/24 07:02:40;;;;;;;10.68;7.25;;;;;;;14.40;59.58;99687.78;5092729;28;20052;-73
2022/12/24 07:05:09;;;;;;;10.73;7.68;;;;;;;14.38;59.64;99686.19;5092751;28;20123;-73
2022/12/24 07:07:38;;;;;;;10.93;7.90;;;;;;;14.30;59.74;99693.09;5092732;28;20051;-72
2022/12/24 07:10:12;;;;;;;10.32;7.15;;;;;;;14.26;59.89;99688.94;5092758;28;20043;-73
2022/12/24 07:12:40;;;;;;;10.63;7.93;;;;;;;14.23;59.98;99697.25;5092558;28;20500;-73
2022/12/24 07:15:12;;;;;;;10.00;7.50;;;;;;;14.18;60.02;99680.69;5092600;28;20547;-72
2022/12/24 07:17:40;;;;;;;9.60;7.25;;;;;;;14.16;60.03;99693.38;5092593;28;20115;-73
2022/12/24 07:20:15;;;;;;;9.68;7.60;;;;;;;14.14;60.07;99695.34;5091071;28;20040;-73
2022/12/24 07:22:43;;;;;;;10.45;7.13;;;;;;;14.12;59.97;99701.81;5091191;28;20048;-73
2022/12/24 07:25:16;;;;;;;11.27;7.82;;;;;;;14.08;59.96;99695.84;5092360;28;20052;-71
2022/12/24 07:27:45;;;;;;;9.30;7.13;;;;;;;14.07;59.97;99696.81;5092324;28;20124;-71
2022/12/24 07:30:15;;;;;;;10.80;7.50;;;;;;;14.06;60.09;99703.16;5092301;28;20040;-72
2022/12/24 07:32:43;;;;;;;9.07;7.25;;;;;;;14.03;60.14;99704.28;5092426;28;20138;-73
2022/12/24 07:35:11;;;;;;;8.82;6.75;;;;;;;14.01;60.02;99718.81;5092344;28;20151;-72
2022/12/24 07:37:40;;;;;;;10.60;7.13;;;;;;;13.97;60.17;99731.59;5092085;28;20054;-72
2022/12/24 07:40:09;;;;;;;10.48;7.10;;;;;;;13.95;60.00;99732.72;5092273;28;20059;-72
2022/12/24 07:42:37;;;;;;;8.68;6.70;;;;;;;13.94;60.06;99731.00;5090798;28;20048;-73
2022/12/24 07:45:07;;;;;;;8.93;6.70;;;;;;;13.90;60.20;99730.41;5090896;28;20040;-73
2022/12/24 07:47:37;;;;;;;9.93;7.13;;;;;;;13.88;60.21;99732.34;5092037;28;20047;-72
2022/12/24 07:50:08;;;;;;;10.13;7.25;;;;;;;13.88;60.31;99736.84;5091842;28;20524;-71
2022/12/24 07:52:36;;;;;;;9.10;6.88;;;;;;;13.84;60.41;99757.72;5091934;28;20101;-72
2022/12/24 07:55:05;;;;;;;8.93;6.85;;;;;;;13.87;60.33;99760.13;5091771;28;20047;-72
2022/12/24 07:57:33;;;;;;;8.90;6.40;;;;;;;13.91;60.34;99758.94;5091912;28;20048;-72
2022/12/24 08:00:03;;;;;;;8.25;6.13;;;;;;;13.97;60.25;99758.41;5092027;28;20040;-72
2022/12/24 08:02:31;;;;;;;8.80;6.20;;;;;;;14.07;60.31;99765.69;5092116;28;20448;-72
2022/12/24 08:05:01;;;;;;;9.35;6.50;;;;;;;14.16;60.21;99757.75;5091529;28;20082;-72
2022/12/24 08:07:29;;;;;;;9.27;6.40;;;;;;;14.24;60.04;99757.97;5090624;28;20394;-72
2022/12/24 08:09:58;;;;;;;9.63;6.32;;;;;;;14.31;59.88;99766.38;5090573;28;20059;-72
2022/12/24 08:12:27;;;;;;;8.80;6.22;;;;;;;14.33;59.80;99759.03;5091731;28;20079;-72
2022/12/24 08:14:55;;;;;;;9.18;6.47;;;;;;;14.38;59.89;99772.03;5091779;28;20401;-71
2022/12/24 08:17:23;;;;;;;8.68;5.95;;;;;;;14.40;59.83;99780.84;5090471;28;20198;-73
2022/12/24 08:20:05;;;;;;;8.85;6.18;;;;;;;14.38;59.67;99782.78;5091772;28;20044;-71
2022/12/24 08:22:33;;;;;;;8.82;5.93;;;;;;;14.41;59.84;99804.00;5093215;28;20106;-71
2022/12/24 08:25:01;;;;;;;7.53;5.97;;;;;;;14.41;59.78;99806.69;5091390;28;20047;-72
2022/12/24 08:27:29;;;;;;;8.75;6.18;;;;;;;14.40;59.70;99813.91;5090136;28;20040;-72
2022/12/24 08:29:58;;;;;;;7.85;6.15;;;;;;;14.40;59.75;99815.72;5090649;28;20156;-73
2022/12/24 08:32:26;;;;;;;9.40;6.40;;;;;;;14.38;59.77;99815.84;5091567;28;20063;-72
2022/12/24 08:34:54;;;;;;;8.57;6.78;;;;;;;14.36;59.82;99822.31;5091461;28;20094;-73
2022/12/24 08:37:23;;;;;;;8.30;5.97;;;;;;;14.36;59.82;99831.22;5091418;28;20056;-73
2022/12/24 08:39:53;;;;;;;8.73;6.18;;;;;;;14.32;60.13;99841.34;5091549;28;20048;-72
2022/12/24 08:42:21;;;;;;;9.65;6.30;;;;;;;14.33;59.89;99845.72;5091497;28;20051;-71
2022/12/24 08:44:49;;;;;;;9.05;6.35;;;;;;;14.29;60.01;99849.66;5091450;28;20040;-72
2022/12/24 08:47:17;;;;;;;9.23;6.60;;;;;;;14.29;60.00;99857.72;5089782;28;20048;-72
2022/12/24 08:49:48;;;;;;;8.27;5.95;;;;;;;14.27;59.88;99854.28;5091773;28;20139;-72
2022/12/24 08:52:16;;;;;;;8.13;6.13;;;;;;;14.26;59.96;99859.78;5090239;28;20094;-72
2022/12/24 08:54:46;;;;;;;7.80;5.75;;;;;;;14.23;60.00;99860.88;5091473;28;20048;-73
2022/12/24 08:57:14;;;;;;;8.60;6.15;;;;;;;14.22;60.00;99864.53;5091483;28;20094;-73
2022/12/24 08:59:43;;;;;;;7.97;5.78;;;;;;;14.20;60.14;99861.13;5091461;28;20044;-73
2022/12/24 09:02:12;;;;;;;8.63;5.80;;;;;;;14.20;59.99;99861.13;5091344;28;20389;-73
2022/12/24 09:04:40;;;;;;;8.68;6.28;;;;;;;14.17;60.21;99856.00;5091502;28;20046;-72
2022/12/24 09:07:09;;;;;;;7.07;5.30;;;;;;;14.16;60.19;99862.34;5091468;28;20056;-72
2022/12/24 09:09:37;;;;;;;8.70;5.97;;;;;;;14.16;59.99;99865.03;5091312;28;20123;-72
2022/12/24 09:12:09;;;;;;;7.35;5.55;;;;;;;14.14;60.29;99863.47;5091345;28;20401;-72
2022/12/24 09:14:37;;;;;;;7.28;5.22;;;;;;;14.13;60.33;99870.66;5091039;28;20481;-72
2022/12/24 09:17:06;;;;;;;7.65;5.55;;;;;;;14.11;60.20;99867.25;5092300;28;20382;-72
2022/12/24 09:19:34;;;;;;;7.47;5.72;;;;;;;14.11;60.27;99883.34;5094803;28;20044;-71
2022/12/24 09:22:02;;;;;;;7.53;5.45;;;;;;;14.11;60.26;99898.59;5094567;28;20051;-73
2022/12/24 09:24:31;;;;;;;8.18;5.60;;;;;;;14.07;60.56;99891.75;5094501;28;20065;-71
2022/12/24 09:27:00;;;;;;;8.23;5.80;;;;;;;14.07;60.35;99900.63;5094626;28;20119;-71
2022/12/24 09:29:31;;;;;;;8.00;5.30;;;;;;;14.06;60.53;99895.41;5094704;28;20047;-71
2022/12/24 09:31:59;;;;;;;6.95;5.03;;;;;;;14.03;60.55;99891.16;5093188;28;20055;-72
2022/12/24 09:34:27;;;;;;;7.10;5.50;;;;;;;14.02;60.40;99890.28;5094224;28;20481;-73
2022/12/24 09:37:12;;;;;;;7.50;5.15;;;;;;;14.02;60.46;99895.66;5094428;28;20048;-71
2022/12/24 09:39:40;;;;;;;7.82;5.13;;;;;;;14.01;60.49;99895.78;5095184;28;20393;-75
2022/12/24 09:42:28;;;;;;;7.65;5.30;;;;;;;14.00;60.49;99889.56;5094382;28;20112;-72
2022/12/24 09:45:05;;;;;;;6.85;4.93;;;;;;;14.00;60.43;99891.41;5094365;28;20520;-71
2022/12/24 09:47:38;;;;;;;8.02;5.00;;;;;;;13.97;60.78;99892.47;5093171;28;20493;-71
2022/12/24 09:50:32;;;;;;;7.68;5.38;;;;;;;14.00;60.70;99891.41;5093352;28;20101;-74
2022/12/24 09:53:05;;;;;;;7.70;5.20;;;;;;;13.99;60.94;99889.66;5092342;28;20097;-74
2022/12/24 09:55:44;;;;;;;7.90;5.18;;;;;;;14.00;60.78;99886.03;5091489;28;20120;-75
2022/12/24 09:58:20;;;;;;;8.00;5.18;;;;;;;13.99;60.94;99889.66;5092218;28;20051;-74
2022/12/24 10:00:51;;;;;;;8.25;5.28;;;;;;;13.99;61.00;99890.56;5092537;28;20044;-73
2022/12/24 10:03:19;;;;;;;8.77;5.18;;;;;;;13.99;61.18;99908.44;5092966;28;20044;-73
2022/12/24 10:06:02;;;;;;;7.57;5.35;;;;;;;13.97;61.36;99900.53;5092946;28;20056;-71
2022/12/24 10:08:39;;;;;;;8.60;5.30;;;;;;;13.96;61.22;99912.22;5093345;28;20048;-72
2022/12/24 10:11:16;;;;;;;8.35;5.13;;;;;;;13.93;61.07;99907.13;5091697;28;20074;-71
2022/12/24 10:14:03;;;;;;;9.38;5.72;;;;;;;13.94;61.50;99907.97;5092698;28;20374;-72
2022/12/24 10:16:46;;;;;;;9.13;5.20;;;;;;;13.95;61.61;99907.84;5093362;28;20044;-72
2022/12/24 10:19:21;;;;;;;8.00;4.97;;;;;;;13.96;61.55;99908.69;5092628;28;20435;-73
2022/12/24 10:22:00;;;;;;;8.75;5.00;;;;;;;13.96;61.74;99911.38;5092781;28;20047;-73
2022/12/24 10:24:38;;;;;;;9.30;4.95;;;;;;;13.94;61.80;99899.91;5091497;28;20048;-72
2022/12/24 10:27:19;;;;;;;7.65;4.78;;;;;;;13.94;61.82;99910.66;5091974;28;20044;-73
2022/12/24 10:29:52;;;;;;;6.60;5.00;;;;;;;13.94;61.90;99907.97;5091908;28;20080;-73
2022/12/24 10:32:26;;;;;;;18.35;6.40;;;;;;;14.03;64.98;99912.59;5093278;28;20085;-72
2022/12/24 10:34:59;;;;;;;27.48;7.47;;;;;;;14.16;68.18;99915.13;5093605;28;20500;-76
2022/12/24 10:37:29;;;;;;;20.83;7.70;;;;;;;14.22;68.93;99920.88;5092096;28;20056;-73
2022/12/24 10:39:59;;;;;;;19.00;7.80;;;;;;;14.28;69.00;99920.38;5093477;28;20040;-74
2022/12/24 10:42:41;;;;;;;21.88;7.95;;;;;;;14.35;69.28;99912.69;5092040;28;20044;-71
2022/12/24 10:45:36;;;;;;;20.90;7.10;;;;;;;14.40;68.52;99917.69;5105994;28;20131;-75
2022/12/24 10:48:12;;;;;;;10.38;5.65;;;;;;;14.37;67.68;99912.53;5071855;28;20040;-76
2022/12/24 10:50:50;;;;;;;17.48;6.10;;;;;;;14.33;66.87;99920.00;5072336;28;20059;-75
2022/12/24 10:53:23;;;;;;;17.20;6.13;;;;;;;14.29;66.49;99914.03;5105193;28;20451;-75
2022/12/24 10:56:01;;;;;;;13.50;5.30;;;;;;;14.27;66.19;99929.38;5070807;28;20048;-74
2022/12/24 10:58:29;;;;;;;12.98;5.25;;;;;;;14.23;65.80;99921.72;5072783;28;20174;-75
2022/12/24 11:00:57;;;;;;;12.95;4.97;;;;;;;14.22;65.63;99933.44;5072784;28;20044;-74
2022/12/24 11:03:32;;;;;;;9.15;4.93;;;;;;;14.17;65.48;99924.88;5071424;28;20101;-74
2022/12/24 11:06:04;;;;;;;7.90;4.38;;;;;;;14.19;65.30;99936.38;5072761;28;20036;-75
2022/12/24 11:08:33;;;;;;;11.43;4.83;;;;;;;14.16;64.93;99934.78;5072963;28;20061;-75
2022/12/24 11:11:04;;;;;;;11.25;4.70;;;;;;;14.15;64.83;99937.56;5072753;28;20504;-76
2022/12/24 11:13:36;;;;;;;10.63;4.22;;;;;;;14.14;64.81;99950.13;5071362;28;20433;-75
2022/12/24 11:16:10;;;;;;;10.30;3.90;;;;;;;14.13;64.71;99953.78;5072566;28;20040;-76
2022/12/24 11:18:47;;;;;;;7.78;3.63;;;;;;;14.14;64.48;99946.59;5072651;28;20132;-75
2022/12/24 11:21:21;;;;;;;8.50;3.53;;;;;;;14.13;64.37;99950.25;5072480;28;20048;-75
2022/12/24 11:23:52;;;;;;;9.30;3.42;;;;;;;14.11;64.49;99949.53;5072254;28;20045;-75
2022/12/24 11:26:26;;;;;;;7.32;3.10;;;;;;;14.10;64.33;99956.72;5104833;28;20454;-77
2022/12/24 11:29:15;;;;;;;7.47;3.25;;;;;;;14.10;64.17;99967.47;5072205;28;20106;-77
2022/12/24 11:31:44;;;;;;;6.88;3.30;;;;;;;14.09;64.36;99971.13;5072153;28;20094;-77
2022/12/24 11:34:26;;;;;;;8.00;3.33;;;;;;;14.09;64.14;99976.47;5104930;28;20147;-77
2022/12/24 11:37:06;;;;;;;8.05;3.03;;;;;;;14.09;64.34;99973.81;5072449;28;20500;-77
2022/12/24 11:39:47;;;;;;;5.88;2.70;;;;;;;14.08;64.15;99980.13;5071688;28;20139;-77
2022/12/24 11:42:30;;;;;;;5.40;2.45;;;;;;;14.07;64.19;99967.69;5072421;28;20040;-76
2022/12/24 11:45:00;;;;;;;7.90;2.80;;;;;;;14.07;64.22;99972.19;5072154;28;20331;-77
2022/12/24 11:47:36;;;;;;;4.75;2.55;;;;;;;14.06;64.17;99984.75;5072060;28;20048;-77
2022/12/24 11:53:07;;;;;;;6.40;2.20;;;;;;;14.05;64.16;99972.31;5089479;28;20751;-76
2022/12/24 11:55:44;;;;;;;6.18;2.63;;;;;;;14.04;64.14;99984.88;5089444;28;20481;-76
2022/12/24 11:58:22;;;;;;;6.82;2.67;;;;;;;14.04;64.16;99973.28;5088252;28;20472;-76